createdAt,value
2022-11-13T07:15:45.217Z,27.97
2022-11-13T07:18:13.284Z,26.67
2022-11-13T07:20:41.402Z,26.73
2022-11-13T07:23:09.848Z,27.00
2022-11-13T07:25:38.087Z,27.93
2022-11-13T07:28:06.737Z,26.40
2022-11-13T07:30:34.777Z,26.60
2022-11-13T07:33:04.876Z,26.80
2022-11-13T07:35:32.934Z,28.17
2022-11-13T07:38:01.061Z,27.97
2022-11-13T07:40:29.113Z,28.40
2022-11-13T07:43:00.611Z,26.87
2022-11-13T07:45:29.365Z,26.07
2022-11-13T07:48:00.637Z,25.33
2022-11-13T07:50:31.268Z,25.03
2022-11-13T07:53:00.362Z,25.53
2022-11-13T07:55:30.019Z,28.23
2022-11-13T07:57:59.279Z,29.10
2022-11-13T08:00:28.141Z,30.90
2022-11-13T08:02:56.472Z,34.27
2022-11-13T08:05:24.802Z,34.13
2022-11-13T08:07:54.419Z,34.90
2022-11-13T08:10:22.552Z,34.53
2022-11-13T08:12:50.605Z,30.53
2022-11-13T08:15:18.882Z,29.10
2022-11-13T08:17:54.088Z,28.47
2022-11-13T08:20:22.172Z,27.60
2022-11-13T08:22:50.284Z,27.13
2022-11-13T08:25:20.379Z,29.57
2022-11-13T08:27:50.770Z,29.23
2022-11-13T08:30:19.246Z,29.30
2022-11-13T08:32:48.760Z,29.93
2022-11-13T08:35:19.710Z,30.57
2022-11-13T08:37:48.654Z,29.33
2022-11-13T08:40:16.947Z,28.07
2022-11-13T08:42:46.606Z,27.30
2022-11-13T08:45:14.672Z,27.73
2022-11-13T08:47:42.777Z,26.50
2022-11-13T08:50:11.174Z,27.17
2022-11-13T08:52:39.321Z,28.60
2022-11-13T08:55:07.960Z,27.07
2022-11-13T08:57:36.123Z,25.53
2022-11-13T09:00:06.308Z,25.53
2022-11-13T09:02:34.333Z,24.47
2022-11-13T09:05:03.060Z,25.67
2022-11-13T09:07:31.312Z,23.60
2022-11-13T09:09:59.503Z,23.63
2022-11-13T09:12:27.641Z,23.07
2022-11-13T09:14:55.959Z,22.87
2022-11-13T09:17:27.551Z,22.43
2022-11-13T09:19:58.390Z,22.17
2022-11-13T09:22:28.945Z,22.67
2022-11-13T09:24:57.072Z,21.37
2022-11-13T09:27:25.424Z,21.13
2022-11-13T09:29:55.682Z,21.73
2022-11-13T09:32:25.475Z,21.47
2022-11-13T09:34:53.555Z,21.57
2022-11-13T09:37:21.626Z,22.77
2022-11-13T09:39:49.732Z,23.43
2022-11-13T09:42:21.882Z,21.83
2022-11-13T09:44:53.725Z,22.63
2022-11-13T09:47:25.980Z,23.40
2022-11-13T09:50:01.365Z,23.30
2022-11-13T09:52:33.924Z,21.93
2022-11-13T09:55:04.342Z,21.33
2022-11-13T09:57:38.811Z,21.60
2022-11-13T10:00:12.032Z,21.27
2022-11-13T10:02:49.524Z,22.23
2022-11-13T10:05:30.060Z,22.20
2022-11-13T10:08:07.060Z,21.43
2022-11-13T10:10:55.486Z,20.70
2022-11-13T10:13:30.088Z,18.73
2022-11-13T10:16:16.231Z,18.43
2022-11-13T10:18:45.700Z,19.30
2022-11-13T10:21:23.226Z,19.80
2022-11-13T10:23:56.336Z,17.73
2022-11-13T10:26:28.105Z,17.33
2022-11-13T10:29:02.567Z,18.37
2022-11-13T10:31:30.746Z,17.73
2022-11-13T10:33:58.993Z,16.53
2022-11-13T10:36:50.719Z,18.53
2022-11-13T10:39:19.135Z,17.20
2022-11-13T10:41:49.286Z,16.40
2022-11-13T10:44:30.976Z,16.50
2022-11-13T10:47:07.449Z,17.13
2022-11-13T10:49:35.529Z,16.97
2022-11-13T10:52:10.997Z,17.63
2022-11-13T10:54:39.535Z,17.03
2022-11-13T10:57:26.060Z,18.10
2022-11-13T10:59:54.116Z,17.70
2022-11-13T11:02:24.600Z,17.53
2022-11-13T11:05:03.212Z,18.30
2022-11-13T11:07:40.416Z,19.70
2022-11-13T11:10:23.069Z,20.23
2022-11-13T11:12:55.682Z,20.27
2022-11-13T11:15:28.086Z,17.93
2022-11-13T11:18:01.884Z,18.17
2022-11-13T11:20:43.968Z,18.57
2022-11-13T11:23:23.121Z,19.00
2022-11-13T11:25:57.719Z,19.57
2022-11-13T11:28:32.515Z,18.30
2022-11-13T11:31:12.031Z,17.60
2022-11-13T11:33:51.416Z,16.70
2022-11-13T11:36:32.216Z,17.27
2022-11-13T11:39:13.786Z,15.07
2022-11-13T11:41:45.235Z,15.27
2022-11-13T11:44:19.552Z,15.40
2022-11-13T11:46:47.682Z,15.20
2022-11-13T11:49:16.328Z,16.57
2022-11-13T11:51:57.838Z,15.83
2022-11-13T11:54:40.935Z,16.67
2022-11-13T11:57:20.281Z,15.70
2022-11-13T12:00:02.949Z,14.93
2022-11-13T12:02:52.092Z,14.75
2022-11-13T12:05:25.123Z,14.88
2022-11-13T12:08:13.274Z,15.07
2022-11-13T12:10:51.420Z,13.98
2022-11-13T12:13:29.426Z,14.00
2022-11-13T12:16:05.615Z,13.85
2022-11-13T12:18:46.417Z,14.32
2022-11-13T12:21:24.032Z,14.13
2022-11-13T12:24:12.649Z,14.63
2022-11-13T12:26:51.515Z,14.05
2022-11-13T12:29:34.358Z,15.00
2022-11-13T12:32:15.288Z,13.93
2022-11-13T12:34:48.091Z,14.32
2022-11-13T12:37:23.539Z,13.85
2022-11-13T12:39:58.039Z,13.68
2022-11-13T12:42:34.377Z,12.85
2022-11-13T12:45:11.323Z,12.80
2022-11-13T12:47:39.522Z,12.65
2022-11-13T12:50:25.180Z,13.02
2022-11-13T12:53:01.902Z,12.20
2022-11-13T12:55:32.402Z,13.38
2022-11-13T12:58:10.790Z,14.38
2022-11-13T13:00:42.361Z,14.35
2022-11-13T13:03:28.505Z,16.13
2022-11-13T13:06:10.986Z,16.08
2022-11-13T13:08:55.119Z,17.40
2022-11-13T13:11:31.136Z,16.40
2022-11-13T13:14:17.439Z,16.50
2022-11-13T13:16:45.601Z,16.67
2022-11-13T13:19:28.479Z,15.23
2022-11-13T13:21:57.150Z,16.90
2022-11-13T13:24:34.918Z,15.82
2022-11-13T13:27:03.246Z,15.95
2022-11-13T13:29:35.187Z,16.17
2022-11-13T13:32:17.866Z,15.15
2022-11-13T13:35:00.818Z,15.25
2022-11-13T13:37:37.928Z,14.60
2022-11-13T13:40:17.353Z,15.50
2022-11-13T13:43:02.473Z,15.57
2022-11-13T13:45:41.990Z,16.30
2022-11-13T13:48:13.158Z,16.60
2022-11-13T13:50:45.385Z,17.17
2022-11-13T13:53:19.528Z,16.55
2022-11-13T13:55:50.944Z,16.52
2022-11-13T13:58:24.277Z,15.55
2022-11-13T14:01:20.050Z,16.02
2022-11-13T14:03:48.505Z,16.30
2022-11-13T14:06:22.302Z,14.35
2022-11-13T14:08:50.825Z,14.52
2022-11-13T14:11:21.580Z,14.02
2022-11-13T14:13:49.834Z,14.63
2022-11-13T14:16:19.307Z,13.73
2022-11-13T14:18:47.341Z,13.70
2022-11-13T14:21:18.257Z,10.60
2022-11-13T14:23:50.541Z,9.98
2022-11-13T14:26:20.168Z,10.02
2022-11-13T14:28:54.513Z,9.10
2022-11-13T14:31:30.064Z,8.20
2022-11-13T14:34:01.360Z,8.02
2022-11-13T14:36:32.449Z,7.78
2022-11-13T14:39:00.889Z,8.75
2022-11-13T14:41:35.387Z,8.20
2022-11-13T14:44:04.265Z,8.40
2022-11-13T14:46:37.002Z,8.20
2022-11-13T14:49:12.469Z,7.57
2022-11-13T14:51:40.804Z,7.95
2022-11-13T14:54:24.189Z,7.93
2022-11-13T14:56:53.977Z,9.02
2022-11-13T14:59:28.040Z,9.43
2022-11-13T15:01:58.670Z,9.25
2022-11-13T15:04:28.471Z,9.35
2022-11-13T15:07:00.038Z,9.87
2022-11-13T15:15:17.854Z,11.50
2022-11-13T15:17:46.882Z,12.30
2022-11-13T15:20:17.533Z,13.13
